Time;durP1;ratioP1;P1;durP2;ratioP2;P2;SDS_P1;SDS_P2;PMS_P1;PMS_P2;Temp;Humidity;BMP_temperature;BMP_pressure;BME280_temperature;BME280_humidity;BME280_pressure;Samples;Min_cycle;Max_cycle;Signal;HPM_P1;HPM_P2
2021/04/12 00:00:00;;;;;;;5.30;1.90;;;2.60;86.60;;;;;;5053754;28;20616;-85
2021/04/12 00:02:54;;;;;;;8.77;3.60;;;2.60;86.90;;;;;;5035391;28;20198;-85
2021/04/12 00:05:28;;;;;;;10.20;1.90;;;2.60;86.80;;;;;;5034950;28;20648;-84
2021/04/12 00:08:02;;;;;;;4.53;1.93;;;2.60;87.20;;;;;;5052611;28;20191;-85
2021/04/12 00:10:38;;;;;;;5.10;1.50;;;2.50;86.90;;;;;;5053414;28;20239;-84
2021/04/12 00:13:10;;;;;;;7.80;1.80;;;2.50;87.10;;;;;;5035285;28;20773;-84
2021/04/12 00:15:51;;;;;;;11.47;2.13;;;2.50;87.20;;;;;;5053235;28;20633;-84
2021/04/12 00:18:35;;;;;;;9.90;2.10;;;2.50;87.50;;;;;;5053053;28;20236;-84
2021/04/12 00:21:37;;;;;;;6.00;1.70;;;2.50;87.50;;;;;;5035245;28;20168;-84
2021/04/12 00:24:07;;;;;;;3.60;1.97;;;2.60;87.50;;;;;;5028115;28;20180;-83
2021/04/12 00:27:00;;;;;;;8.17;1.80;;;2.70;87.40;;;;;;5035134;28;20332;-84
2021/04/12 00:29:44;;;;;;;3.30;1.53;;;2.80;87.20;;;;;;5035169;28;20672;-84
2021/04/12 00:32:32;;;;;;;6.17;1.57;;;2.80;87.40;;;;;;5035998;28;20158;-84
2021/04/12 00:35:04;;;;;;;4.57;1.20;;;2.80;87.30;;;;;;5053126;28;20163;-84
2021/04/12 00:38:22;;;;;;;4.00;1.70;;;2.80;87.30;;;;;;5053158;28;20178;-84
2021/04/12 00:40:50;;;;;;;2.40;1.40;;;2.80;87.50;;;;;;5002864;28;20541;-84
2021/04/12 00:43:42;;;;;;;5.70;1.50;;;2.70;87.50;;;;;;5035008;28;20179;-84
2021/04/12 00:46:13;;;;;;;4.87;1.50;;;2.80;87.60;;;;;;5026853;28;20214;-84
2021/04/12 00:49:06;;;;;;;6.27;1.53;;;2.70;87.50;;;;;;5052779;28;20194;-84
2021/04/12 00:52:04;;;;;;;4.20;1.70;;;2.70;87.40;;;;;;5052829;28;20628;-84
2021/04/12 00:55:21;;;;;;;7.33;1.87;;;2.70;87.60;;;;;;5012147;28;20187;-84
2021/04/12 00:58:06;;;;;;;7.23;2.17;;;2.60;87.40;;;;;;5008471;28;20219;-84
2021/04/12 01:00:44;;;;;;;8.67;2.17;;;2.50;87.90;;;;;;5052722;28;20161;-84
2021/04/12 01:03:37;;;;;;;5.13;1.90;;;2.50;88.10;;;;;;5052762;28;20532;-84
2021/04/12 01:06:45;;;;;;;9.53;1.93;;;2.40;88.10;;;;;;5034697;28;20193;-84
2021/04/12 01:09:16;;;;;;;10.37;2.40;;;2.40;88.70;;;;;;5041723;28;20210;-84
2021/04/12 01:12:21;;;;;;;4.20;1.70;;;2.30;88.80;;;;;;5034868;28;20230;-83
2021/04/12 01:15:17;;;;;;;7.17;2.03;;;2.30;88.80;;;;;;5022082;28;20240;-83
2021/04/12 01:18:08;;;;;;;9.97;1.90;;;2.30;88.90;;;;;;5035647;28;20193;-83
2021/04/12 01:20:58;;;;;;;5.83;2.10;;;2.30;89.10;;;;;;5038334;28;20269;-84
2021/04/12 01:23:48;;;;;;;12.37;2.43;;;2.20;88.60;;;;;;5038257;28;20170;-84
2021/04/12 01:26:38;;;;;;;7.90;2.10;;;2.20;88.40;;;;;;5056157;28;20194;-84
2021/04/12 01:29:24;;;;;;;7.13;1.97;;;2.20;88.00;;;;;;5056213;28;20184;-84
2021/04/12 01:32:23;;;;;;;2.60;1.60;;;2.20;87.90;;;;;;5038084;28;20226;-84
2021/04/12 01:35:37;;;;;;;5.60;2.13;;;2.20;87.90;;;;;;5056087;28;20165;-84
2021/04/12 01:38:27;;;;;;;10.40;1.70;;;2.10;87.80;;;;;;5038730;28;20254;-84
2021/04/12 01:41:07;;;;;;;6.60;2.30;;;2.10;87.90;;;;;;5056171;28;20169;-84
2021/04/12 01:43:55;;;;;;;8.20;2.07;;;2.10;88.10;;;;;;5038010;28;20160;-84
2021/04/12 01:46:26;;;;;;;9.97;2.30;;;2.00;88.50;;;;;;5055718;28;20538;-84
2021/04/12 01:49:37;;;;;;;14.77;2.17;;;2.00;88.50;;;;;;5038073;28;20582;-83
2021/04/12 01:53:07;;;;;;;7.53;1.80;;;2.00;88.50;;;;;;5037978;28;20168;-84
2021/04/12 01:55:55;;;;;;;3.50;1.90;;;1.90;88.40;;;;;;4954749;28;20216;-84
2021/04/12 01:58:30;;;;;;;7.97;2.03;;;2.00;88.50;;;;;;4973988;28;20288;-84
2021/04/12 02:01:07;;;;;;;12.03;3.13;;;2.00;88.40;;;;;;5044038;28;20188;-84
2021/04/12 02:03:48;;;;;;;8.47;2.33;;;2.00;88.30;;;;;;5055557;28;20160;-83
2021/04/12 02:06:52;;;;;;;9.83;2.20;;;2.00;88.20;;;;;;5055690;28;20189;-84
2021/04/12 02:09:46;;;;;;;9.60;1.90;;;2.00;88.00;;;;;;5014613;28;20208;-84
2021/04/12 02:12:27;;;;;;;7.80;2.10;;;1.90;88.30;;;;;;5021137;28;20192;-84
2021/04/12 02:15:00;;;;;;;4.43;1.73;;;1.90;88.40;;;;;;5055191;28;20233;-84
2021/04/12 02:18:00;;;;;;;4.27;1.90;;;1.90;88.50;;;;;;5055436;28;20152;-84
2021/04/12 02:20:52;;;;;;;12.57;2.47;;;1.90;88.50;;;;;;5055482;28;20172;-84
2021/04/12 02:23:27;;;;;;;10.13;2.37;;;1.90;88.50;;;;;;5055067;28;20652;-84
2021/04/12 02:26:23;;;;;;;4.97;2.17;;;1.90;88.50;;;;;;5037209;28;20192;-84
2021/04/12 02:29:27;;;;;;;11.57;2.33;;;2.10;88.50;;;;;;5054121;28;20222;-84
2021/04/12 02:32:18;;;;;;;10.97;2.10;;;2.20;88.50;;;;;;4957973;28;20175;-84
2021/04/12 02:35:01;;;;;;;13.27;2.33;;;2.20;88.70;;;;;;4974141;28;20175;-84
2021/04/12 02:37:36;;;;;;;4.60;2.10;;;2.10;88.90;;;;;;5035019;28;20184;-84
2021/04/12 02:40:14;;;;;;;9.73;2.00;;;2.10;88.90;;;;;;5054965;28;20250;-84
2021/04/12 02:43:06;;;;;;;8.00;2.07;;;2.00;88.80;;;;;;5054713;28;20180;-84
2021/04/12 02:45:37;;;;;;;8.23;2.90;;;2.10;88.70;;;;;;5036729;28;20176;-84
2021/04/12 02:48:20;;;;;;;6.53;1.77;;;2.00;88.60;;;;;;5036636;28;20219;-84
2021/04/12 02:51:04;;;;;;;8.60;2.23;;;2.00;88.50;;;;;;5054839;28;20152;-84
2021/04/12 02:53:56;;;;;;;8.47;2.80;;;1.90;88.50;;;;;;5054613;28;20161;-84
2021/04/12 02:56:57;;;;;;;10.93;2.40;;;1.90;88.50;;;;;;5036569;28;20171;-84
2021/04/12 02:59:54;;;;;;;8.20;2.10;;;1.90;88.50;;;;;;5036485;28;20189;-84
2021/04/12 03:02:44;;;;;;;8.33;2.27;;;1.90;88.40;;;;;;5054698;28;20213;-84
2021/04/12 03:05:34;;;;;;;9.13;1.80;;;1.90;88.30;;;;;;5054532;28;20174;-84
2021/04/12 03:08:26;;;;;;;4.43;1.83;;;1.90;88.00;;;;;;5036209;28;20199;-84
2021/04/12 03:11:34;;;;;;;6.80;2.07;;;1.90;88.10;;;;;;5050300;28;20662;-84
2021/04/12 03:14:31;;;;;;;12.73;2.40;;;1.90;88.10;;;;;;4993136;28;20180;-84
2021/04/12 03:17:03;;;;;;;8.30;1.80;;;1.80;88.10;;;;;;5054296;28;20222;-84
2021/04/12 03:19:37;;;;;;;8.97;2.30;;;1.80;88.20;;;;;;5054019;28;20612;-84
2021/04/12 03:22:36;;;;;;;2.17;1.67;;;1.80;88.20;;;;;;5054129;28;20156;-84
2021/04/12 03:25:11;;;;;;;5.10;2.00;;;1.80;88.10;;;;;;5035991;28;20197;-84
2021/04/12 03:27:51;;;;;;;6.67;2.03;;;1.80;88.10;;;;;;5035876;28;20711;-84
2021/04/12 03:30:25;;;;;;;7.90;2.03;;;1.70;88.10;;;;;;5053902;28;20228;-84
2021/04/12 03:33:04;;;;;;;10.77;2.23;;;1.70;88.10;;;;;;5053936;28;20160;-84
2021/04/12 03:35:59;;;;;;;6.57;2.47;;;1.70;88.10;;;;;;5053710;28;20186;-84
2021/04/12 03:38:34;;;;;;;11.53;2.70;;;1.70;88.20;;;;;;5053572;28;20693;-84
2021/04/12 03:41:28;;;;;;;15.70;3.10;;;1.70;88.10;;;;;;5053464;28;20533;-84
2021/04/12 03:44:28;;;;;;;5.13;2.27;;;1.70;88.10;;;;;;5053924;28;20243;-84
2021/04/12 03:47:02;;;;;;;13.87;3.10;;;1.60;88.10;;;;;;5035745;28;20200;-84
2021/04/12 03:49:54;;;;;;;10.63;2.43;;;1.60;88.10;;;;;;5053553;28;20187;-84
2021/04/12 03:52:41;;;;;;;8.87;2.97;;;1.60;88.00;;;;;;5035674;28;20564;-84
2021/04/12 03:55:19;;;;;;;8.67;2.97;;;1.60;88.10;;;;;;5035617;28;20578;-84
2021/04/12 03:58:11;;;;;;;8.43;2.63;;;1.60;88.10;;;;;;5053435;28;20272;-84
2021/04/12 04:00:55;;;;;;;6.67;2.17;;;1.70;88.10;;;;;;5035646;28;20172;-84
2021/04/12 04:04:01;;;;;;;11.27;2.97;;;1.70;87.90;;;;;;5053402;28;20179;-84
2021/04/12 04:07:05;;;;;;;10.23;3.00;;;1.80;87.80;;;;;;5034717;28;20207;-84
2021/04/12 04:09:34;;;;;;;11.13;2.70;;;1.80;87.70;;;;;;5035437;28;20203;-84
2021/04/12 04:12:19;;;;;;;7.57;2.50;;;1.80;87.70;;;;;;5053174;28;20169;-84
2021/04/12 04:15:06;;;;;;;10.93;3.03;;;1.80;87.70;;;;;;5053326;28;20160;-84
2021/04/12 04:17:52;;;;;;;14.97;3.53;;;1.70;87.70;;;;;;5053416;28;20160;-84
2021/04/12 04:20:27;;;;;;;14.33;3.30;;;1.70;87.90;;;;;;5053224;28;20626;-84
2021/04/12 04:23:14;;;;;;;9.23;2.70;;;1.80;87.90;;;;;;5052997;28;20180;-84
2021/04/12 04:26:02;;;;;;;11.43;3.67;;;1.80;87.80;;;;;;5053116;28;20678;-84
2021/04/12 04:28:53;;;;;;;12.23;3.67;;;1.80;87.80;;;;;;5052342;28;20584;-84
2021/04/12 04:31:48;;;;;;;12.90;3.27;;;1.70;87.90;;;;;;5035190;28;20204;-84
2021/04/12 04:34:31;;;;;;;8.17;3.47;;;1.80;88.10;;;;;;5053119;28;20593;-83
2021/04/12 04:37:08;;;;;;;10.47;2.90;;;1.80;88.10;;;;;;5035171;28;20216;-84
2021/04/12 04:39:36;;;;;;;12.87;3.27;;;1.80;88.30;;;;;;5052834;28;20207;-84
2021/04/12 04:42:39;;;;;;;10.23;2.97;;;1.70;88.40;;;;;;5052921;28;20645;-84
2021/04/12 04:45:46;;;;;;;9.50;3.10;;;1.80;88.50;;;;;;5035000;28;20178;-83
2021/04/12 04:48:42;;;;;;;15.03;3.53;;;1.80;88.50;;;;;;4971984;28;20622;-84
2021/04/12 04:51:29;;;;;;;10.90;3.50;;;1.80;88.30;;;;;;5052942;28;20583;-84
2021/04/12 04:54:32;;;;;;;11.83;3.57;;;1.80;88.20;;;;;;5056261;28;20203;-84
2021/04/12 04:57:29;;;;;;;9.90;3.57;;;1.80;88.50;;;;;;5056795;28;20234;-84
2021/04/12 05:00:13;;;;;;;11.07;3.80;;;1.90;88.50;;;;;;5038753;28;20635;-83
2021/04/12 05:02:48;;;;;;;13.07;3.53;;;2.00;88.50;;;;;;5038737;28;20218;-84
2021/04/12 05:05:35;;;;;;;12.57;3.60;;;2.10;88.30;;;;;;5038758;28;20214;-84
2021/04/12 05:08:20;;;;;;;7.13;3.43;;;2.20;88.10;;;;;;5038575;28;20200;-84
2021/04/12 05:11:15;;;;;;;13.87;3.77;;;2.20;87.90;;;;;;5038610;28;20191;-84
2021/04/12 05:13:50;;;;;;;9.13;4.17;;;2.10;88.20;;;;;;5025600;28;20259;-84
2021/04/12 05:17:03;;;;;;;10.53;3.33;;;2.10;88.50;;;;;;5056718;28;20160;-84
2021/04/12 05:19:52;;;;;;;11.37;3.20;;;2.10;88.80;;;;;;4975558;28;20233;-84
2021/04/12 05:22:36;;;;;;;13.37;3.97;;;2.20;88.60;;;;;;5038567;28;20514;-84
2021/04/12 05:25:23;;;;;;;11.30;3.50;;;2.20;88.70;;;;;;5056293;28;20164;-84
2021/04/12 05:28:14;;;;;;;10.33;3.60;;;2.30;88.80;;;;;;5056048;28;20704;-84
2021/04/12 05:30:50;;;;;;;8.53;3.50;;;2.30;88.60;;;;;;5056288;28;20239;-84
2021/04/12 05:33:35;;;;;;;9.20;3.27;;;2.30;88.70;;;;;;5056148;28;20148;-84
2021/04/12 05:36:22;;;;;;;8.63;3.77;;;2.30;88.70;;;;;;5038236;28;20259;-84
2021/04/12 05:39:17;;;;;;;9.57;3.30;;;2.30;88.70;;;;;;5055739;28;20333;-84
2021/04/12 05:42:09;;;;;;;11.00;3.47;;;2.30;89.00;;;;;;5056275;28;20165;-84
2021/04/12 05:44:56;;;;;;;7.57;3.17;;;2.40;88.90;;;;;;5008120;28;20185;-84
2021/04/12 05:47:45;;;;;;;5.87;3.10;;;2.50;88.80;;;;;;5055669;28;20284;-84
2021/04/12 05:50:31;;;;;;;14.13;3.60;;;2.40;88.60;;;;;;5055839;28;20571;-84
2021/04/12 05:53:15;;;;;;;12.80;3.83;;;2.40;88.70;;;;;;5055930;28;20165;-84
2021/04/12 05:55:54;;;;;;;11.87;3.03;;;2.40;88.60;;;;;;5055910;28;20152;-84
2021/04/12 05:58:57;;;;;;;4.90;3.17;;;2.30;88.10;;;;;;5037586;28;20630;-84
2021/04/12 06:01:56;;;;;;;12.73;3.00;;;2.30;88.40;;;;;;5055502;28;20213;-84
2021/04/12 06:04:36;;;;;;;11.27;3.13;;;2.40;88.50;;;;;;5037528;28;20536;-84
2021/04/12 06:07:29;;;;;;;8.40;2.73;;;2.40;88.60;;;;;;5055376;28;20191;-84
2021/04/12 06:10:13;;;;;;;15.67;4.07;;;2.50;88.70;;;;;;5055506;28;20638;-84
2021/04/12 06:13:16;;;;;;;9.80;3.37;;;2.60;88.80;;;;;;5037415;28;20187;-84
2021/04/12 06:15:53;;;;;;;13.10;3.70;;;2.70;88.40;;;;;;5055431;28;20175;-84
2021/04/12 06:18:30;;;;;;;9.73;4.03;;;2.70;88.40;;;;;;5037189;28;20258;-84
2021/04/12 06:21:24;;;;;;;12.67;3.53;;;2.80;88.30;;;;;;5055293;28;20198;-84
2021/04/12 06:23:52;;;;;;;10.03;3.40;;;2.80;88.00;;;;;;5055040;28;20172;-84
2021/04/12 06:26:55;;;;;;;10.27;3.90;;;2.80;88.30;;;;;;5054958;28;20265;-84
2021/04/12 06:29:38;;;;;;;10.17;3.10;;;2.90;88.40;;;;;;5054826;28;20195;-84
2021/04/12 06:32:40;;;;;;;11.40;3.20;;;2.90;88.30;;;;;;5054980;28;20162;-84
2021/04/12 06:35:31;;;;;;;13.27;3.43;;;3.00;88.30;;;;;;5037062;28;20544;-84
2021/04/12 06:38:18;;;;;;;10.53;3.13;;;3.10;88.00;;;;;;5036655;28;20701;-84
2021/04/12 06:41:17;;;;;;;11.70;3.20;;;3.00;87.60;;;;;;5054691;28;20705;-84
2021/04/12 06:44:23;;;;;;;13.60;4.33;;;3.10;87.80;;;;;;5054739;28;20169;-84
2021/04/12 06:46:57;;;;;;;16.03;3.10;;;3.20;87.90;;;;;;5036759;28;20201;-84
2021/04/12 06:49:42;;;;;;;8.53;3.07;;;3.30;87.60;;;;;;5036696;28;20189;-84
2021/04/12 06:52:45;;;;;;;12.23;3.40;;;3.30;87.90;;;;;;5054856;28;20223;-84
2021/04/12 06:55:24;;;;;;;7.40;2.70;;;3.40;88.00;;;;;;5054446;28;20659;-84
2021/04/12 06:58:24;;;;;;;12.70;5.37;;;3.60;87.80;;;;;;5054364;28;20568;-84
2021/04/12 07:01:24;;;;;;;12.13;3.67;;;3.70;87.70;;;;;;5054607;28;20732;-85
2021/04/12 07:04:12;;;;;;;16.87;4.30;;;3.90;87.80;;;;;;5036748;28;20176;-85
2021/04/12 07:06:53;;;;;;;13.70;3.30;;;4.10;87.70;;;;;;5054190;28;20726;-85
2021/04/12 07:09:52;;;;;;;12.13;3.20;;;4.00;87.30;;;;;;5054119;28;20275;-85
2021/04/12 07:12:55;;;;;;;11.07;3.00;;;4.10;87.40;;;;;;5036247;28;20181;-85
2021/04/12 07:15:47;;;;;;;10.27;3.03;;;4.20;87.40;;;;;;5053559;28;20155;-85
2021/04/12 07:18:37;;;;;;;20.57;4.20;;;4.20;86.90;;;;;;5036073;28;20291;-85
2021/04/12 07:21:22;;;;;;;9.80;2.63;;;4.10;86.80;;;;;;5036104;28;20632;-85
2021/04/12 07:23:50;;;;;;;9.23;2.83;;;4.30;86.50;;;;;;5054185;28;20198;-85
2021/04/12 07:26:50;;;;;;;11.23;4.20;;;4.50;87.00;;;;;;5036068;28;20201;-84
2021/04/12 07:29:37;;;;;;;8.47;2.50;;;4.50;85.80;;;;;;5053987;28;20267;-84
2021/04/12 07:32:36;;;;;;;10.60;3.60;;;4.70;85.40;;;;;;5054071;28;20618;-84
2021/04/12 07:35:19;;;;;;;8.27;3.10;;;4.80;86.00;;;;;;5054206;28;20539;-84
2021/04/12 07:38:22;;;;;;;9.87;3.17;;;4.80;85.00;;;;;;5036038;28;20202;-84
2021/04/12 07:40:50;;;;;;;9.27;2.73;;;4.80;83.80;;;;;;5053705;28;20184;-84
2021/04/12 07:43:37;;;;;;;7.63;2.23;;;4.70;84.70;;;;;;5035847;28;20179;-84
2021/04/12 07:46:26;;;;;;;7.33;3.33;;;4.90;85.30;;;;;;5053962;28;20184;-84
2021/04/12 07:49:29;;;;;;;13.47;3.13;;;4.90;85.40;;;;;;5053659;28;20184;-84
2021/04/12 07:52:19;;;;;;;8.47;2.87;;;5.00;84.90;;;;;;5035823;28;20175;-84
2021/04/12 07:55:17;;;;;;;14.63;3.20;;;5.10;85.40;;;;;;5053357;28;20205;-84
2021/04/12 07:58:03;;;;;;;5.50;2.63;;;5.10;85.10;;;;;;5053527;28;20283;-84
2021/04/12 08:00:49;;;;;;;6.80;2.63;;;5.30;84.90;;;;;;5035565;28;20168;-84
2021/04/12 08:03:52;;;;;;;6.97;2.00;;;5.40;84.30;;;;;;5053336;28;20176;-84
2021/04/12 08:06:57;;;;;;;8.83;2.70;;;5.40;83.10;;;;;;5035197;28;20205;-84
2021/04/12 08:10:00;;;;;;;8.03;2.50;;;5.50;83.70;;;;;;5053340;28;20191;-84
2021/04/12 08:12:56;;;;;;;10.23;3.13;;;5.80;82.80;;;;;;5035270;28;20603;-84
2021/04/12 08:15:44;;;;;;;9.50;2.43;;;5.80;81.50;;;;;;5035268;28;20641;-84
2021/04/12 08:18:37;;;;;;;4.50;2.37;;;5.80;81.50;;;;;;5053050;28;20302;-84
2021/04/12 08:21:37;;;;;;;9.43;2.37;;;5.70;81.00;;;;;;5035187;28;20237;-84
2021/04/12 08:24:27;;;;;;;7.37;2.30;;;5.70;81.30;;;;;;5052950;28;20256;-84
2021/04/12 08:27:21;;;;;;;7.03;2.80;;;5.60;80.90;;;;;;5035101;28;20665;-84
2021/04/12 08:30:05;;;;;;;8.17;2.83;;;5.60;81.80;;;;;;5057201;28;20182;-84
2021/04/12 08:33:01;;;;;;;6.30;2.17;;;5.80;83.00;;;;;;5039129;28;20172;-84
2021/04/12 08:36:04;;;;;;;8.50;1.73;;;6.00;80.40;;;;;;5057018;28;20160;-84
2021/04/12 08:39:17;;;;;;;8.33;2.20;;;6.30;77.10;;;;;;5056793;28;20676;-85
2021/04/12 08:42:12;;;;;;;5.97;1.87;;;6.50;77.70;;;;;;5056990;28;20161;-86
2021/04/12 08:44:49;;;;;;;11.97;2.40;;;6.60;77.00;;;;;;5039203;28;20605;-87
2021/04/12 08:47:21;;;;;;;6.50;1.93;;;6.80;77.10;;;;;;5038942;28;20188;-87
2021/04/12 08:50:04;;;;;;;9.93;2.20;;;6.80;76.30;;;;;;5056909;28;20159;-86
2021/04/12 08:52:54;;;;;;;11.00;2.47;;;6.70;77.70;;;;;;5038972;28;20165;-86
2021/04/12 08:55:57;;;;;;;14.20;2.60;;;6.70;76.80;;;;;;5039010;28;20697;-87
2021/04/12 08:58:53;;;;;;;6.77;2.13;;;7.00;76.80;;;;;;5038758;28;20197;-86
2021/04/12 09:01:37;;;;;;;5.07;1.50;;;7.00;73.10;;;;;;5038705;28;20641;-91
2021/04/12 09:04:08;;;;;;;7.70;2.00;;;6.60;72.70;;;;;;5038501;28;20209;-88
2021/04/12 09:07:11;;;;;;;7.13;2.07;;;6.70;75.10;;;;;;5039278;28;20696;-89
2021/04/12 09:09:44;;;;;;;7.93;2.13;;;6.80;73.70;;;;;;5038795;28;20724;-89
2021/04/12 09:12:30;;;;;;;6.87;2.13;;;6.70;74.40;;;;;;5039045;28;20240;-89
2021/04/12 09:15:14;;;;;;;13.30;2.13;;;6.60;74.40;;;;;;5038882;28;20177;-88
2021/04/12 09:18:02;;;;;;;8.83;2.50;;;6.30;73.60;;;;;;5038505;28;20569;-87
2021/04/12 09:20:40;;;;;;;6.03;2.33;;;6.30;74.10;;;;;;5038598;28;20193;-87
2021/04/12 09:23:46;;;;;;;6.17;2.50;;;6.40;73.90;;;;;;5039239;28;20201;-88
2021/04/12 09:26:36;;;;;;;7.87;2.97;;;6.80;76.00;;;;;;5038477;28;20668;-87
2021/04/12 09:29:43;;;;;;;3.40;1.70;;;7.00;73.40;;;;;;5056202;28;20191;-88
2021/04/12 09:32:27;;;;;;;4.17;1.63;;;7.10;72.90;;;;;;5038453;28;20175;-87
2021/04/12 09:35:12;;;;;;;5.97;1.93;;;7.30;72.10;;;;;;5056498;28;20514;-87
2021/04/12 09:38:14;;;;;;;4.77;1.93;;;7.40;73.00;;;;;;5038021;28;20745;-88
2021/04/12 09:41:26;;;;;;;7.27;1.80;;;7.60;68.20;;;;;;5038058;28;20186;-87
2021/04/12 09:44:29;;;;;;;7.70;1.70;;;7.80;73.30;;;;;;5038272;28;20214;-89
2021/04/12 09:47:10;;;;;;;5.47;1.60;;;8.20;71.20;;;;;;5037902;28;20231;-87
2021/04/12 09:50:07;;;;;;;4.63;2.00;;;8.00;71.50;;;;;;5037887;28;20668;-89
2021/04/12 09:52:51;;;;;;;4.10;1.63;;;7.80;70.90;;;;;;5037919;28;20622;-90
2021/04/12 09:55:46;;;;;;;5.77;1.60;;;7.60;72.10;;;;;;5037902;28;20175;-89
2021/04/12 09:58:57;;;;;;;6.57;2.20;;;7.50;71.60;;;;;;5055810;28;20217;-89
2021/04/12 10:02:04;;;;;;;7.27;1.70;;;7.30;73.30;;;;;;5018487;28;20183;-89
2021/04/12 10:05:01;;;;;;;3.70;1.40;;;6.80;74.40;;;;;;5055756;28;20167;-88
2021/04/12 10:07:33;;;;;;;5.43;1.40;;;6.60;75.50;;;;;;5038199;28;20227;-89
2021/04/12 10:10:08;;;;;;;7.63;2.33;;;6.30;75.60;;;;;;5038569;28;20170;-89
2021/04/12 10:13:02;;;;;;;4.77;1.50;;;6.10;77.00;;;;;;5037510;28;20166;-89
2021/04/12 10:16:09;;;;;;;4.33;1.80;;;6.00;78.70;;;;;;5037583;28;20175;-88
2021/04/12 10:19:03;;;;;;;5.17;2.27;;;6.10;79.00;;;;;;5036589;28;20628;-87
2021/04/12 10:21:51;;;;;;;4.57;1.70;;;6.20;79.40;;;;;;5055131;28;20174;-87
2021/04/12 10:24:28;;;;;;;6.17;1.60;;;6.20;79.50;;;;;;5037443;28;20539;-87
2021/04/12 10:27:08;;;;;;;4.17;2.13;;;6.30;79.60;;;;;;5037126;28;20202;-86
2021/04/12 10:29:42;;;;;;;7.23;1.50;;;6.30;79.10;;;;;;5037611;28;20192;-89
2021/04/12 10:32:23;;;;;;;3.73;1.30;;;6.40;80.80;;;;;;5037200;28;20213;-89
2021/04/12 10:34:59;;;;;;;1.77;1.50;;;6.70;79.70;;;;;;5037096;28;20191;-89
2021/04/12 10:37:43;;;;;;;2.83;1.50;;;6.80;78.00;;;;;;5037065;28;20182;-89
2021/04/12 10:40:23;;;;;;;2.17;1.37;;;6.80;77.30;;;;;;5054788;28;20201;-89
2021/04/12 10:42:54;;;;;;;8.73;1.53;;;6.70;77.40;;;;;;5036937;28;20166;-87
2021/04/12 10:45:32;;;;;;;3.37;1.23;;;6.70;77.60;;;;;;5036964;28;20179;-88
2021/04/12 10:48:26;;;;;;;2.17;1.00;;;6.60;77.00;;;;;;5036845;28;20247;-89
2021/04/12 10:51:02;;;;;;;2.03;1.00;;;6.30;72.30;;;;;;5036088;28;20632;-88
2021/04/12 10:53:40;;;;;;;2.53;1.00;;;6.10;72.50;;;;;;5036784;28;20173;-88
2021/04/12 10:56:32;;;;;;;1.43;1.03;;;6.00;72.30;;;;;;5055008;28;20189;-87
2021/04/12 10:59:37;;;;;;;2.07;1.10;;;6.10;72.40;;;;;;5043617;28;20206;-86
2021/04/12 11:02:20;;;;;;;1.33;1.00;;;6.70;72.30;;;;;;5054536;28;20177;-89
2021/04/12 11:05:02;;;;;;;4.87;1.37;;;7.30;71.90;;;;;;5054932;28;20620;-87
2021/04/12 11:07:33;;;;;;;2.93;1.40;;;7.50;70.50;;;;;;5036028;28;20199;-88
2021/04/12 11:10:07;;;;;;;2.43;1.07;;;7.60;67.10;;;;;;5036750;28;20172;-87
2021/04/12 11:12:57;;;;;;;1.63;0.93;;;7.60;65.10;;;;;;5054375;28;20152;-88
2021/04/12 11:15:29;;;;;;;2.53;1.00;;;7.80;65.70;;;;;;5054251;28;20633;-88
2021/04/12 11:18:20;;;;;;;1.93;1.00;;;7.50;59.50;;;;;;5054254;28;20195;-88
2021/04/12 11:21:02;;;;;;;1.20;1.00;;;7.50;61.10;;;;;;5036335;28;20176;-88
2021/04/12 11:23:37;;;;;;;3.97;1.43;;;7.60;61.30;;;;;;5054004;28;20164;-87
2021/04/12 11:26:18;;;;;;;3.27;1.27;;;7.60;64.30;;;;;;5053948;28;20529;-87
2021/04/12 11:29:12;;;;;;;2.90;1.20;;;7.60;62.90;;;;;;5035985;28;20192;-87
2021/04/12 11:32:09;;;;;;;2.87;1.10;;;7.30;61.40;;;;;;5035249;28;20636;-88
2021/04/12 11:34:43;;;;;;;3.20;1.70;;;7.10;64.30;;;;;;5053749;28;20257;-86
2021/04/12 11:37:51;;;;;;;3.53;1.40;;;6.90;63.90;;;;;;5036269;28;20172;-86
2021/04/12 11:40:33;;;;;;;3.00;1.40;;;6.90;64.00;;;;;;5021988;28;20202;-86
2021/04/12 11:43:11;;;;;;;4.07;2.80;;;6.90;63.60;;;;;;5054516;28;20208;-86
2021/04/12 11:46:00;;;;;;;4.97;1.57;;;6.90;65.90;;;;;;5035940;28;20179;-86
2021/04/12 11:48:50;;;;;;;1.93;1.40;;;7.50;68.50;;;;;;5035659;28;20213;-85
2021/04/12 11:51:38;;;;;;;5.10;1.50;;;7.70;65.50;;;;;;5035760;28;20210;-85
2021/04/12 11:54:09;;;;;;;3.73;1.40;;;8.20;66.80;;;;;;5035575;28;20175;-85
2021/04/12 11:57:02;;;;;;;5.33;1.40;;;8.30;64.50;;;;;;5053455;28;20645;-85
2021/04/12 11:59:42;;;;;;;3.13;1.30;;;8.30;61.40;;;;;;5053324;28;20209;-85
2021/04/12 12:02:34;;;;;;;3.80;1.33;;;8.50;61.40;;;;;;5053190;28;20645;-84
2021/04/12 12:05:14;;;;;;;3.27;1.40;;;8.70;60.50;;;;;;5035506;28;20222;-85
2021/04/12 12:07:52;;;;;;;4.23;1.40;;;8.90;62.40;;;;;;5035240;28;20302;-84
2021/04/12 12:10:58;;;;;;;1.73;1.27;;;9.20;63.10;;;;;;5053755;28;20259;-87
2021/04/12 12:13:23;;;;;;;3.97;1.43;;;9.10;55.60;;;;;;5056717;28;20167;-87
2021/04/12 12:15:58;;;;;;;2.60;1.40;;;8.40;55.90;;;;;;5056438;28;20176;-85
2021/04/12 12:18:29;;;;;;;4.30;1.60;;;7.90;57.80;;;;;;5035704;28;20209;-85
2021/04/12 12:21:29;;;;;;;3.33;1.40;;;7.70;58.10;;;;;;5053755;28;20581;-86
2021/04/12 12:24:13;;;;;;;4.33;1.80;;;7.50;57.60;;;;;;5035317;28;20186;-86
2021/04/12 12:26:56;;;;;;;3.80;1.63;;;8.10;60.90;;;;;;5053055;28;20192;-86
2021/04/12 12:29:33;;;;;;;4.20;1.60;;;8.50;55.80;;;;;;5035179;28;20199;-86
2021/04/12 12:32:16;;;;;;;5.50;1.60;;;9.10;59.40;;;;;;5053041;28;20213;-86
2021/04/12 12:34:57;;;;;;;4.13;1.60;;;9.30;58.00;;;;;;5035101;28;20200;-85
2021/04/12 12:38:00;;;;;;;2.40;1.20;;;9.50;52.80;;;;;;5034982;28;20297;-86
2021/04/12 12:40:35;;;;;;;3.10;1.40;;;9.30;53.30;;;;;;5035046;28;20183;-86
2021/04/12 12:43:07;;;;;;;4.73;1.50;;;9.70;57.20;;;;;;5052987;28;20217;-86
2021/04/12 12:45:40;;;;;;;3.00;1.20;;;10.00;59.30;;;;;;5035077;28;20170;-86
2021/04/12 12:48:22;;;;;;;3.93;1.43;;;9.80;56.30;;;;;;5052751;28;20270;-86
2021/04/12 12:51:11;;;;;;;6.47;1.60;;;9.10;57.30;;;;;;5035111;28;20179;-85
2021/04/12 12:53:42;;;;;;;3.90;1.60;;;9.50;58.80;;;;;;5038442;28;20172;-85
2021/04/12 12:56:26;;;;;;;7.43;1.80;;;9.10;56.90;;;;;;5038636;28;20576;-87
2021/04/12 12:59:25;;;;;;;6.27;1.70;;;9.00;57.60;;;;;;5037449;28;20204;-85
2021/04/12 13:01:52;;;;;;;5.27;1.60;;;8.70;56.70;;;;;;5022858;28;20250;-85
2021/04/12 13:04:25;;;;;;;3.97;1.50;;;8.60;56.80;;;;;;5039311;28;20211;-85
2021/04/12 13:06:54;;;;;;;2.43;1.40;;;9.00;59.00;;;;;;5057877;28;20192;-85
2021/04/12 13:09:31;;;;;;;5.23;1.63;;;9.30;56.00;;;;;;5058485;28;20192;-84
2021/04/12 13:12:16;;;;;;;2.67;1.20;;;9.50;54.70;;;;;;5058207;28;20148;-84
2021/04/12 13:14:45;;;;;;;1.80;1.20;;;9.40;51.60;;;;;;5058397;28;20175;-84
2021/04/12 13:17:26;;;;;;;4.73;2.00;;;9.70;54.80;;;;;;5056589;28;20629;-84
2021/04/12 13:19:57;;;;;;;3.57;1.37;;;9.80;53.70;;;;;;5056477;28;20160;-84
2021/04/12 13:22:36;;;;;;;3.07;1.50;;;10.30;53.30;;;;;;5056499;28;20168;-85
2021/04/12 13:25:33;;;;;;;6.93;1.40;;;10.00;53.50;;;;;;5056380;28;20182;-85
2021/04/12 13:28:05;;;;;;;4.83;1.47;;;9.60;53.40;;;;;;5040361;28;20268;-85
2021/04/12 13:30:34;;;;;;;6.90;1.50;;;9.70;54.60;;;;;;5038465;28;20172;-85
2021/04/12 13:33:01;;;;;;;8.17;1.57;;;9.60;54.40;;;;;;5056738;28;20688;-86
2021/04/12 13:35:43;;;;;;;8.50;1.90;;;9.30;57.80;;;;;;5059443;28;20258;-85
2021/04/12 13:38:27;;;;;;;5.53;1.40;;;9.70;57.30;;;;;;5042894;28;20210;-85
2021/04/12 13:41:14;;;;;;;4.97;1.73;;;10.20;56.90;;;;;;5061991;28;20167;-85
2021/04/12 13:43:47;;;;;;;7.10;1.57;;;9.90;56.40;;;;;;5040346;28;20277;-85
2021/04/12 13:46:24;;;;;;;6.00;1.40;;;9.60;56.30;;;;;;5055963;28;20673;-84
2021/04/12 13:49:11;;;;;;;4.47;1.70;;;9.00;54.80;;;;;;5038053;28;20191;-84
2021/04/12 13:52:02;;;;;;;4.17;1.60;;;9.20;58.00;;;;;;5037882;28;20593;-84
2021/04/12 13:54:50;;;;;;;6.23;1.63;;;9.30;56.00;;;;;;5037969;28;20160;-84
2021/04/12 13:57:21;;;;;;;2.93;1.93;;;9.30;54.10;;;;;;5037974;28;20168;-84
2021/04/12 13:59:53;;;;;;;2.10;1.37;;;8.80;55.90;;;;;;5056311;28;20183;-84
2021/04/12 14:02:27;;;;;;;3.47;1.50;;;9.30;59.00;;;;;;5039290;28;20159;-84
2021/04/12 14:05:24;;;;;;;3.37;1.53;;;9.20;55.50;;;;;;5037763;28;20210;-85
2021/04/12 14:08:11;;;;;;;3.73;1.37;;;8.80;53.40;;;;;;5036939;28;20220;-85
2021/04/12 14:10:44;;;;;;;4.60;1.30;;;8.50;53.70;;;;;;5041112;28;20219;-85
2021/04/12 14:13:18;;;;;;;2.47;1.43;;;8.80;54.20;;;;;;5057567;28;20622;-86
2021/04/12 14:16:07;;;;;;;2.20;1.27;;;9.30;52.70;;;;;;5055601;28;20152;-86
2021/04/12 14:18:39;;;;;;;3.43;1.20;;;9.30;52.60;;;;;;5037495;28;20198;-85
2021/04/12 14:21:14;;;;;;;1.93;1.20;;;9.30;53.30;;;;;;5037594;28;20160;-85
2021/04/12 14:23:57;;;;;;;3.50;1.53;;;9.40;55.20;;;;;;5055491;28;20246;-85
2021/04/12 14:26:50;;;;;;;3.30;1.37;;;9.50;54.20;;;;;;5035898;28;20661;-85
2021/04/12 14:29:19;;;;;;;5.73;1.33;;;9.90;56.10;;;;;;5024009;28;20204;-85
2021/04/12 14:31:45;;;;;;;1.80;1.00;;;9.60;57.20;;;;;;5037315;28;20171;-85
2021/04/12 14:34:35;;;;;;;1.10;1.00;;;9.80;56.10;;;;;;5054930;28;20251;-85
2021/04/12 14:37:10;;;;;;;1.20;0.80;;;9.50;51.40;;;;;;5037085;28;20188;-86